sensor_id;sensor_type;location;lat;lon;timestamp;temperature;humidity
80192;SHT31;69513;51.990;5.704;2023-08-07T00:01:38;15.4;78.1
80192;SHT31;69513;51.990;5.704;2023-08-07T00:04:08;15.4;78.6
80192;SHT31;69513;51.990;5.704;2023-08-07T00:06:37;15.4;79.3
80192;SHT31;69513;51.990;5.704;2023-08-07T00:09:07;15.4;78.9
80192;SHT31;69513;51.990;5.704;2023-08-07T00:11:37;15.4;79.2
80192;SHT31;69513;51.990;5.704;2023-08-07T00:14:06;15.4;79.2
80192;SHT31;69513;51.990;5.704;2023-08-07T00:16:37;15.4;79.5
80192;SHT31;69513;51.990;5.704;2023-08-07T00:19:08;15.4;79.7
80192;SHT31;69513;51.990;5.704;2023-08-07T00:21:38;15.4;79.3
80192;SHT31;69513;51.990;5.704;2023-08-07T00:24:09;15.4;79.1
80192;SHT31;69513;51.990;5.704;2023-08-07T00:26:38;15.3;79.2
80192;SHT31;69513;51.990;5.704;2023-08-07T00:29:09;15.3;79.3
80192;SHT31;69513;51.990;5.704;2023-08-07T00:31:40;15.3;79.3
80192;SHT31;69513;51.990;5.704;2023-08-07T00:34:10;15.3;79.5
80192;SHT31;69513;51.990;5.704;2023-08-07T00:36:40;15.3;79.6
80192;SHT31;69513;51.990;5.704;2023-08-07T00:39:10;15.3;79.9
80192;SHT31;69513;51.990;5.704;2023-08-07T00:41:39;15.3;79.3
80192;SHT31;69513;51.990;5.704;2023-08-07T00:44:09;15.3;79.4
80192;SHT31;69513;51.990;5.704;2023-08-07T00:46:40;15.2;79.6
80192;SHT31;69513;51.990;5.704;2023-08-07T00:49:14;15.2;79.5
80192;SHT31;69513;51.990;5.704;2023-08-07T00:51:47;15.2;79.7
80192;SHT31;69513;51.990;5.704;2023-08-07T00:54:19;15.2;79.5
80192;SHT31;69513;51.990;5.704;2023-08-07T00:56:50;15.2;79.6
80192;SHT31;69513;51.990;5.704;2023-08-07T00:59:22;15.2;79.6
80192;SHT31;69513;51.990;5.704;2023-08-07T01:01:53;15.2;80.0
80192;SHT31;69513;51.990;5.704;2023-08-07T01:04:23;15.2;79.7
80192;SHT31;69513;51.990;5.704;2023-08-07T01:06:53;15.2;79.8
80192;SHT31;69513;51.990;5.704;2023-08-07T01:09:25;15.2;79.7
80192;SHT31;69513;51.990;5.704;2023-08-07T01:12:05;15.2;80.1
80192;SHT31;69513;51.990;5.704;2023-08-07T01:14:51;15.2;79.4
80192;SHT31;69513;51.990;5.704;2023-08-07T01:17:25;15.2;79.5
80192;SHT31;69513;51.990;5.704;2023-08-07T01:19:57;15.2;80.0
80192;SHT31;69513;51.990;5.704;2023-08-07T01:22:27;15.2;79.7
80192;SHT31;69513;51.990;5.704;2023-08-07T01:24:57;15.3;79.4
80192;SHT31;69513;51.990;5.704;2023-08-07T01:27:34;15.3;79.8
80192;SHT31;69513;51.990;5.704;2023-08-07T01:30:14;15.3;80.0
80192;SHT31;69513;51.990;5.704;2023-08-07T01:32:59;15.3;79.1
80192;SHT31;69513;51.990;5.704;2023-08-07T01:35:30;15.3;78.8
80192;SHT31;69513;51.990;5.704;2023-08-07T01:38:04;15.3;78.6
80192;SHT31;69513;51.990;5.704;2023-08-07T01:40:38;15.3;78.8
80192;SHT31;69513;51.990;5.704;2023-08-07T01:43:09;15.3;78.6
80192;SHT31;69513;51.990;5.704;2023-08-07T01:45:38;15.3;78.8
80192;SHT31;69513;51.990;5.704;2023-08-07T01:48:12;15.3;79.2
80192;SHT31;69513;51.990;5.704;2023-08-07T01:50:41;15.4;78.8
80192;SHT31;69513;51.990;5.704;2023-08-07T01:53:13;15.4;78.8
80192;SHT31;69513;51.990;5.704;2023-08-07T01:55:42;15.4;78.5
80192;SHT31;69513;51.990;5.704;2023-08-07T01:58:12;15.4;78.7
80192;SHT31;69513;51.990;5.704;2023-08-07T02:00:41;15.4;78.7
80192;SHT31;69513;51.990;5.704;2023-08-07T02:03:11;15.4;78.1
80192;SHT31;69513;51.990;5.704;2023-08-07T02:05:41;15.4;78.4
80192;SHT31;69513;51.990;5.704;2023-08-07T02:08:14;15.4;78.4
80192;SHT31;69513;51.990;5.704;2023-08-07T02:10:45;15.4;77.9
80192;SHT31;69513;51.990;5.704;2023-08-07T02:13:15;15.4;77.9
80192;SHT31;69513;51.990;5.704;2023-08-07T02:15:45;15.4;78.1
80192;SHT31;69513;51.990;5.704;2023-08-07T02:18:14;15.4;78.1
80192;SHT31;69513;51.990;5.704;2023-08-07T02:20:47;15.4;77.8
80192;SHT31;69513;51.990;5.704;2023-08-07T02:23:17;15.4;78.2
80192;SHT31;69513;51.990;5.704;2023-08-07T02:25:48;15.4;78.3
80192;SHT31;69513;51.990;5.704;2023-08-07T02:28:18;15.5;78.0
80192;SHT31;69513;51.990;5.704;2023-08-07T02:30:48;15.5;77.7
80192;SHT31;69513;51.990;5.704;2023-08-07T02:33:18;15.5;77.4
80192;SHT31;69513;51.990;5.704;2023-08-07T02:35:48;15.5;77.5
80192;SHT31;69513;51.990;5.704;2023-08-07T02:38:18;15.5;77.2
80192;SHT31;69513;51.990;5.704;2023-08-07T02:40:48;15.5;77.7
80192;SHT31;69513;51.990;5.704;2023-08-07T02:43:18;15.5;77.2
80192;SHT31;69513;51.990;5.704;2023-08-07T02:45:48;15.5;77.3
80192;SHT31;69513;51.990;5.704;2023-08-07T02:48:18;15.4;77.6
80192;SHT31;69513;51.990;5.704;2023-08-07T02:50:51;15.4;78.1
80192;SHT31;69513;51.990;5.704;2023-08-07T02:53:21;15.4;78.2
80192;SHT31;69513;51.990;5.704;2023-08-07T02:55:51;15.4;77.8
80192;SHT31;69513;51.990;5.704;2023-08-07T02:58:20;15.4;77.7
80192;SHT31;69513;51.990;5.704;2023-08-07T03:00:51;15.3;78.2
80192;SHT31;69513;51.990;5.704;2023-08-07T03:03:22;15.3;79.1
80192;SHT31;69513;51.990;5.704;2023-08-07T03:05:52;15.3;78.4
80192;SHT31;69513;51.990;5.704;2023-08-07T03:08:24;15.3;78.9
80192;SHT31;69513;51.990;5.704;2023-08-07T03:10:56;15.3;79.1
80192;SHT31;69513;51.990;5.704;2023-08-07T03:13:27;15.4;78.6
80192;SHT31;69513;51.990;5.704;2023-08-07T03:16:04;15.4;78.7
80192;SHT31;69513;51.990;5.704;2023-08-07T03:18:35;15.4;78.3
80192;SHT31;69513;51.990;5.704;2023-08-07T03:21:09;15.4;77.9
80192;SHT31;69513;51.990;5.704;2023-08-07T03:23:39;15.4;78.6
80192;SHT31;69513;51.990;5.704;2023-08-07T03:26:12;15.4;78.6
80192;SHT31;69513;51.990;5.704;2023-08-07T03:28:42;15.4;78.2
80192;SHT31;69513;51.990;5.704;2023-08-07T03:31:14;15.4;78.8
80192;SHT31;69513;51.990;5.704;2023-08-07T03:33:44;15.3;78.5
80192;SHT31;69513;51.990;5.704;2023-08-07T03:36:16;15.3;79.0
80192;SHT31;69513;51.990;5.704;2023-08-07T03:38:45;15.3;78.5
80192;SHT31;69513;51.990;5.704;2023-08-07T03:41:15;15.3;79.0
80192;SHT31;69513;51.990;5.704;2023-08-07T03:43:44;15.3;79.1
80192;SHT31;69513;51.990;5.704;2023-08-07T03:46:14;15.3;79.1
80192;SHT31;69513;51.990;5.704;2023-08-07T03:48:44;15.3;79.1
80192;SHT31;69513;51.990;5.704;2023-08-07T03:51:14;15.3;79.2
80192;SHT31;69513;51.990;5.704;2023-08-07T03:53:44;15.3;79.4
80192;SHT31;69513;51.990;5.704;2023-08-07T03:56:14;15.3;78.8
80192;SHT31;69513;51.990;5.704;2023-08-07T03:58:45;15.3;79.3
80192;SHT31;69513;51.990;5.704;2023-08-07T04:01:17;15.3;78.8
80192;SHT31;69513;51.990;5.704;2023-08-07T04:03:48;15.3;78.9
80192;SHT31;69513;51.990;5.704;2023-08-07T04:06:18;15.3;79.3
80192;SHT31;69513;51.990;5.704;2023-08-07T04:08:50;15.2;79.2
80192;SHT31;69513;51.990;5.704;2023-08-07T04:11:19;15.2;79.4
80192;SHT31;69513;51.990;5.704;2023-08-07T04:13:50;15.2;79.8
80192;SHT31;69513;51.990;5.704;2023-08-07T04:16:19;15.2;79.5
80192;SHT31;69513;51.990;5.704;2023-08-07T04:18:53;15.2;79.3
80192;SHT31;69513;51.990;5.704;2023-08-07T04:21:23;15.2;79.3
80192;SHT31;69513;51.990;5.704;2023-08-07T04:23:55;15.2;79.7
80192;SHT31;69513;51.990;5.704;2023-08-07T04:26:25;15.2;80.1
80192;SHT31;69513;51.990;5.704;2023-08-07T04:28:55;15.2;79.6
80192;SHT31;69513;51.990;5.704;2023-08-07T04:31:24;15.2;79.8
80192;SHT31;69513;51.990;5.704;2023-08-07T04:33:55;15.2;79.9
80192;SHT31;69513;51.990;5.704;2023-08-07T04:36:25;15.2;79.7
80192;SHT31;69513;51.990;5.704;2023-08-07T04:38:54;15.2;80.1
80192;SHT31;69513;51.990;5.704;2023-08-07T04:41:24;15.2;80.5
80192;SHT31;69513;51.990;5.704;2023-08-07T04:43:54;15.2;80.8
80192;SHT31;69513;51.990;5.704;2023-08-07T04:46:24;15.2;80.8
80192;SHT31;69513;51.990;5.704;2023-08-07T04:48:54;15.2;80.6
80192;SHT31;69513;51.990;5.704;2023-08-07T04:51:24;15.2;80.9
80192;SHT31;69513;51.990;5.704;2023-08-07T04:53:56;15.2;80.8
80192;SHT31;69513;51.990;5.704;2023-08-07T04:56:26;15.2;80.9
80192;SHT31;69513;51.990;5.704;2023-08-07T04:58:55;15.2;81.0
80192;SHT31;69513;51.990;5.704;2023-08-07T05:01:25;15.2;80.8
80192;SHT31;69513;51.990;5.704;2023-08-07T05:03:54;15.3;80.9
80192;SHT31;69513;51.990;5.704;2023-08-07T05:06:26;15.3;81.0
80192;SHT31;69513;51.990;5.704;2023-08-07T05:08:56;15.3;80.9
80192;SHT31;69513;51.990;5.704;2023-08-07T05:11:26;15.3;80.8
80192;SHT31;69513;51.990;5.704;2023-08-07T05:13:55;15.3;80.7
80192;SHT31;69513;51.990;5.704;2023-08-07T05:16:27;15.3;80.8
80192;SHT31;69513;51.990;5.704;2023-08-07T05:18:56;15.3;80.8
80192;SHT31;69513;51.990;5.704;2023-08-07T05:21:26;15.3;80.9
80192;SHT31;69513;51.990;5.704;2023-08-07T05:23:56;15.4;81.0
80192;SHT31;69513;51.990;5.704;2023-08-07T05:26:29;15.4;80.8
80192;SHT31;69513;51.990;5.704;2023-08-07T05:28:59;15.4;80.8
80192;SHT31;69513;51.990;5.704;2023-08-07T05:31:28;15.4;80.7
80192;SHT31;69513;51.990;5.704;2023-08-07T05:33:58;15.4;80.9
80192;SHT31;69513;51.990;5.704;2023-08-07T05:36:28;15.4;80.8
80192;SHT31;69513;51.990;5.704;2023-08-07T05:39:00;15.4;80.7
80192;SHT31;69513;51.990;5.704;2023-08-07T05:41:32;15.5;80.7
80192;SHT31;69513;51.990;5.704;2023-08-07T05:44:02;15.5;80.4
80192;SHT31;69513;51.990;5.704;2023-08-07T05:46:33;15.5;80.9
80192;SHT31;69513;51.990;5.704;2023-08-07T05:49:03;15.5;80.8
80192;SHT31;69513;51.990;5.704;2023-08-07T05:51:32;15.5;80.5
80192;SHT31;69513;51.990;5.704;2023-08-07T05:54:02;15.5;80.5
80192;SHT31;69513;51.990;5.704;2023-08-07T05:56:32;15.5;80.3
80192;SHT31;69513;51.990;5.704;2023-08-07T05:59:06;15.5;79.4
80192;SHT31;69513;51.990;5.704;2023-08-07T06:01:38;15.5;79.6
80192;SHT31;69513;51.990;5.704;2023-08-07T06:04:09;15.5;79.5
80192;SHT31;69513;51.990;5.704;2023-08-07T06:06:40;15.5;79.6
80192;SHT31;69513;51.990;5.704;2023-08-07T06:09:10;15.5;79.6
80192;SHT31;69513;51.990;5.704;2023-08-07T06:11:43;15.5;79.8
80192;SHT31;69513;51.990;5.704;2023-08-07T06:14:12;15.5;80.0
80192;SHT31;69513;51.990;5.704;2023-08-07T06:16:42;15.5;79.8
80192;SHT31;69513;51.990;5.704;2023-08-07T06:19:12;15.5;80.2
80192;SHT31;69513;51.990;5.704;2023-08-07T06:21:43;15.5;80.2
80192;SHT31;69513;51.990;5.704;2023-08-07T06:24:13;15.5;80.1
80192;SHT31;69513;51.990;5.704;2023-08-07T06:26:44;15.5;80.4
80192;SHT31;69513;51.990;5.704;2023-08-07T06:29:13;15.6;80.2
80192;SHT31;69513;51.990;5.704;2023-08-07T06:31:43;15.6;80.2
80192;SHT31;69513;51.990;5.704;2023-08-07T06:34:12;15.6;80.1
80192;SHT31;69513;51.990;5.704;2023-08-07T06:36:42;15.6;79.7
80192;SHT31;69513;51.990;5.704;2023-08-07T06:39:12;15.6;79.9
80192;SHT31;69513;51.990;5.704;2023-08-07T06:41:42;15.6;79.7
80192;SHT31;69513;51.990;5.704;2023-08-07T06:44:11;15.6;79.8
80192;SHT31;69513;51.990;5.704;2023-08-07T06:46:41;15.6;80.5
80192;SHT31;69513;51.990;5.704;2023-08-07T06:49:11;15.7;80.6
80192;SHT31;69513;51.990;5.704;2023-08-07T06:51:41;15.7;80.4
80192;SHT31;69513;51.990;5.704;2023-08-07T06:54:10;15.7;80.9
80192;SHT31;69513;51.990;5.704;2023-08-07T06:56:40;15.8;80.4
80192;SHT31;69513;51.990;5.704;2023-08-07T06:59:11;15.8;81.0
80192;SHT31;69513;51.990;5.704;2023-08-07T07:01:41;15.9;79.6
80192;SHT31;69513;51.990;5.704;2023-08-07T07:04:10;15.9;79.7
80192;SHT31;69513;51.990;5.704;2023-08-07T07:06:41;15.9;79.6
80192;SHT31;69513;51.990;5.704;2023-08-07T07:09:10;16.0;80.5
80192;SHT31;69513;51.990;5.704;2023-08-07T07:11:45;16.0;79.6
80192;SHT31;69513;51.990;5.704;2023-08-07T07:14:15;16.0;79.7
80192;SHT31;69513;51.990;5.704;2023-08-07T07:16:44;16.0;79.3
80192;SHT31;69513;51.990;5.704;2023-08-07T07:19:15;16.1;79.0
80192;SHT31;69513;51.990;5.704;2023-08-07T07:21:46;16.1;79.8
80192;SHT31;69513;51.990;5.704;2023-08-07T07:24:16;16.1;79.4
80192;SHT31;69513;51.990;5.704;2023-08-07T07:26:46;16.1;78.5
80192;SHT31;69513;51.990;5.704;2023-08-07T07:29:17;16.2;78.7
80192;SHT31;69513;51.990;5.704;2023-08-07T07:31:47;16.2;79.3
80192;SHT31;69513;51.990;5.704;2023-08-07T07:34:19;16.2;79.2
80192;SHT31;69513;51.990;5.704;2023-08-07T07:36:50;16.3;79.6
80192;SHT31;69513;51.990;5.704;2023-08-07T07:39:22;16.3;78.7
80192;SHT31;69513;51.990;5.704;2023-08-07T07:41:52;16.3;79.0
80192;SHT31;69513;51.990;5.704;2023-08-07T07:44:22;16.4;78.2
80192;SHT31;69513;51.990;5.704;2023-08-07T07:46:52;16.4;78.6
80192;SHT31;69513;51.990;5.704;2023-08-07T07:49:22;16.4;77.2
80192;SHT31;69513;51.990;5.704;2023-08-07T07:51:52;16.4;75.9
80192;SHT31;69513;51.990;5.704;2023-08-07T07:54:21;16.4;76.3
80192;SHT31;69513;51.990;5.704;2023-08-07T07:56:51;16.4;76.4
80192;SHT31;69513;51.990;5.704;2023-08-07T07:59:20;16.3;77.3
80192;SHT31;69513;51.990;5.704;2023-08-07T08:01:52;16.3;77.6
80192;SHT31;69513;51.990;5.704;2023-08-07T08:04:22;16.3;76.6
80192;SHT31;69513;51.990;5.704;2023-08-07T08:06:52;16.3;77.6
80192;SHT31;69513;51.990;5.704;2023-08-07T08:09:23;16.4;78.1
80192;SHT31;69513;51.990;5.704;2023-08-07T08:11:53;16.4;77.8
80192;SHT31;69513;51.990;5.704;2023-08-07T08:14:24;16.4;79.2
80192;SHT31;69513;51.990;5.704;2023-08-07T08:16:54;16.4;77.9
80192;SHT31;69513;51.990;5.704;2023-08-07T08:19:23;16.5;78.9
80192;SHT31;69513;51.990;5.704;2023-08-07T08:21:53;16.5;78.4
80192;SHT31;69513;51.990;5.704;2023-08-07T08:24:23;16.5;77.5
80192;SHT31;69513;51.990;5.704;2023-08-07T08:26:52;16.5;76.2
80192;SHT31;69513;51.990;5.704;2023-08-07T08:29:22;16.6;76.1
80192;SHT31;69513;51.990;5.704;2023-08-07T08:31:55;16.5;75.8
80192;SHT31;69513;51.990;5.704;2023-08-07T08:34:26;16.5;76.7
80192;SHT31;69513;51.990;5.704;2023-08-07T08:36:56;16.5;77.8
80192;SHT31;69513;51.990;5.704;2023-08-07T08:39:26;16.5;76.0
80192;SHT31;69513;51.990;5.704;2023-08-07T08:41:58;16.5;77.3
80192;SHT31;69513;51.990;5.704;2023-08-07T08:44:30;16.5;76.7
80192;SHT31;69513;51.990;5.704;2023-08-07T08:47:02;16.6;76.0
80192;SHT31;69513;51.990;5.704;2023-08-07T08:49:37;16.6;76.6
80192;SHT31;69513;51.990;5.704;2023-08-07T08:52:11;16.6;76.6
80192;SHT31;69513;51.990;5.704;2023-08-07T08:54:45;16.6;76.8
80192;SHT31;69513;51.990;5.704;2023-08-07T08:57:18;16.6;76.3
80192;SHT31;69513;51.990;5.704;2023-08-07T08:59:50;16.6;77.3
80192;SHT31;69513;51.990;5.704;2023-08-07T09:02:21;16.6;75.4
80192;SHT31;69513;51.990;5.704;2023-08-07T09:04:51;16.6;74.4
80192;SHT31;69513;51.990;5.704;2023-08-07T09:07:22;16.7;74.2
80192;SHT31;69513;51.990;5.704;2023-08-07T09:09:56;16.7;74.3
80192;SHT31;69513;51.990;5.704;2023-08-07T09:12:32;16.7;75.1
80192;SHT31;69513;51.990;5.704;2023-08-07T09:15:03;16.7;74.5
80192;SHT31;69513;51.990;5.704;2023-08-07T09:17:40;16.8;76.1
80192;SHT31;69513;51.990;5.704;2023-08-07T09:20:17;16.8;74.5
80192;SHT31;69513;51.990;5.704;2023-08-07T09:22:48;16.9;72.5
80192;SHT31;69513;51.990;5.704;2023-08-07T09:25:31;16.9;73.3
80192;SHT31;69513;51.990;5.704;2023-08-07T09:28:05;16.9;73.8
80192;SHT31;69513;51.990;5.704;2023-08-07T09:30:36;16.9;70.0
80192;SHT31;69513;51.990;5.704;2023-08-07T09:33:11;17.0;72.4
80192;SHT31;69513;51.990;5.704;2023-08-07T09:35:42;17.0;73.4
80192;SHT31;69513;51.990;5.704;2023-08-07T09:38:11;17.0;73.9
80192;SHT31;69513;51.990;5.704;2023-08-07T09:40:42;17.0;72.8
80192;SHT31;69513;51.990;5.704;2023-08-07T09:43:22;17.0;70.3
80192;SHT31;69513;51.990;5.704;2023-08-07T09:45:53;17.1;69.2
80192;SHT31;69513;51.990;5.704;2023-08-07T09:48:27;17.1;69.4
80192;SHT31;69513;51.990;5.704;2023-08-07T09:51:00;17.1;68.8
80192;SHT31;69513;51.990;5.704;2023-08-07T09:53:33;17.1;67.8
80192;SHT31;69513;51.990;5.704;2023-08-07T09:56:06;17.2;70.7
80192;SHT31;69513;51.990;5.704;2023-08-07T09:58:36;17.2;70.7
80192;SHT31;69513;51.990;5.704;2023-08-07T10:01:08;17.3;70.4
80192;SHT31;69513;51.990;5.704;2023-08-07T10:03:39;17.3;68.4
80192;SHT31;69513;51.990;5.704;2023-08-07T10:06:09;17.4;70.0
80192;SHT31;69513;51.990;5.704;2023-08-07T10:08:46;17.4;71.9
80192;SHT31;69513;51.990;5.704;2023-08-07T10:11:15;17.5;68.4
80192;SHT31;69513;51.990;5.704;2023-08-07T10:13:50;17.6;68.4
80192;SHT31;69513;51.990;5.704;2023-08-07T10:16:22;17.7;68.1
80192;SHT31;69513;51.990;5.704;2023-08-07T10:18:53;17.7;68.5
80192;SHT31;69513;51.990;5.704;2023-08-07T10:21:24;17.7;69.7
80192;SHT31;69513;51.990;5.704;2023-08-07T10:23:57;17.8;67.8
80192;SHT31;69513;51.990;5.704;2023-08-07T10:26:30;17.8;66.9
80192;SHT31;69513;51.990;5.704;2023-08-07T10:29:04;17.8;69.1
80192;SHT31;69513;51.990;5.704;2023-08-07T10:31:39;17.9;67.7
80192;SHT31;69513;51.990;5.704;2023-08-07T10:34:12;17.9;68.2
80192;SHT31;69513;51.990;5.704;2023-08-07T10:36:41;17.9;67.6
80192;SHT31;69513;51.990;5.704;2023-08-07T10:39:12;17.9;66.1
80192;SHT31;69513;51.990;5.704;2023-08-07T10:41:46;17.9;65.5
80192;SHT31;69513;51.990;5.704;2023-08-07T10:44:21;17.9;64.4
80192;SHT31;69513;51.990;5.704;2023-08-07T10:46:54;17.9;65.8
80192;SHT31;69513;51.990;5.704;2023-08-07T10:49:36;17.9;63.3
80192;SHT31;69513;51.990;5.704;2023-08-07T10:52:08;17.9;63.4
80192;SHT31;69513;51.990;5.704;2023-08-07T10:54:45;17.9;65.3
80192;SHT31;69513;51.990;5.704;2023-08-07T10:57:18;17.9;63.5
80192;SHT31;69513;51.990;5.704;2023-08-07T11:00:03;17.9;65.5
80192;SHT31;69513;51.990;5.704;2023-08-07T11:02:42;17.9;64.3
80192;SHT31;69513;51.990;5.704;2023-08-07T11:05:12;18.0;63.8
80192;SHT31;69513;51.990;5.704;2023-08-07T11:07:43;18.0;66.1
80192;SHT31;69513;51.990;5.704;2023-08-07T11:10:14;18.0;63.1
80192;SHT31;69513;51.990;5.704;2023-08-07T11:12:46;18.1;64.4
80192;SHT31;69513;51.990;5.704;2023-08-07T11:15:16;18.1;63.4
80192;SHT31;69513;51.990;5.704;2023-08-07T11:17:49;18.2;63.9
80192;SHT31;69513;51.990;5.704;2023-08-07T11:20:20;18.2;64.3
80192;SHT31;69513;51.990;5.704;2023-08-07T11:22:49;18.3;64.6
80192;SHT31;69513;51.990;5.704;2023-08-07T11:25:21;18.3;64.8
80192;SHT31;69513;51.990;5.704;2023-08-07T11:27:54;18.4;63.7
80192;SHT31;69513;51.990;5.704;2023-08-07T11:30:24;18.5;62.1
80192;SHT31;69513;51.990;5.704;2023-08-07T11:32:53;18.5;62.7
80192;SHT31;69513;51.990;5.704;2023-08-07T11:35:24;18.5;62.6
80192;SHT31;69513;51.990;5.704;2023-08-07T11:37:53;18.6;62.7
80192;SHT31;69513;51.990;5.704;2023-08-07T11:40:23;18.6;63.2
80192;SHT31;69513;51.990;5.704;2023-08-07T11:42:53;18.6;60.9
80192;SHT31;69513;51.990;5.704;2023-08-07T11:45:22;18.6;62.5
80192;SHT31;69513;51.990;5.704;2023-08-07T11:47:55;18.6;61.7
80192;SHT31;69513;51.990;5.704;2023-08-07T11:50:28;18.6;59.3
80192;SHT31;69513;51.990;5.704;2023-08-07T11:52:58;18.6;60.4
80192;SHT31;69513;51.990;5.704;2023-08-07T11:55:30;18.6;58.6
80192;SHT31;69513;51.990;5.704;2023-08-07T11:57:59;18.5;59.8
80192;SHT31;69513;51.990;5.704;2023-08-07T12:00:32;18.5;61.4
80192;SHT31;69513;51.990;5.704;2023-08-07T12:03:02;18.5;61.5
80192;SHT31;69513;51.990;5.704;2023-08-07T12:05:40;18.5;60.8
80192;SHT31;69513;51.990;5.704;2023-08-07T12:08:12;18.5;61.0
80192;SHT31;69513;51.990;5.704;2023-08-07T12:10:43;18.5;63.0
80192;SHT31;69513;51.990;5.704;2023-08-07T12:13:14;18.6;61.5
80192;SHT31;69513;51.990;5.704;2023-08-07T12:15:43;18.7;62.4
80192;SHT31;69513;51.990;5.704;2023-08-07T12:18:14;18.8;61.5
80192;SHT31;69513;51.990;5.704;2023-08-07T12:20:45;18.9;64.7
80192;SHT31;69513;51.990;5.704;2023-08-07T12:23:17;19.1;61.0
80192;SHT31;69513;51.990;5.704;2023-08-07T12:25:49;19.2;61.5
80192;SHT31;69513;51.990;5.704;2023-08-07T12:28:20;19.3;62.2
80192;SHT31;69513;51.990;5.704;2023-08-07T12:30:52;19.4;64.2
80192;SHT31;69513;51.990;5.704;2023-08-07T12:33:22;19.6;61.8
80192;SHT31;69513;51.990;5.704;2023-08-07T12:35:53;19.7;62.0
80192;SHT31;69513;51.990;5.704;2023-08-07T12:38:24;19.8;57.4
80192;SHT31;69513;51.990;5.704;2023-08-07T12:40:56;19.9;56.6
80192;SHT31;69513;51.990;5.704;2023-08-07T12:43:27;19.9;56.6
80192;SHT31;69513;51.990;5.704;2023-08-07T12:46:00;19.9;56.4
80192;SHT31;69513;51.990;5.704;2023-08-07T12:48:30;19.9;56.0
80192;SHT31;69513;51.990;5.704;2023-08-07T12:51:00;19.9;57.8
80192;SHT31;69513;51.990;5.704;2023-08-07T12:53:30;19.9;56.5
80192;SHT31;69513;51.990;5.704;2023-08-07T12:56:03;19.9;55.7
80192;SHT31;69513;51.990;5.704;2023-08-07T12:58:33;19.9;57.6
80192;SHT31;69513;51.990;5.704;2023-08-07T13:01:04;19.9;58.7
80192;SHT31;69513;51.990;5.704;2023-08-07T13:03:34;19.9;56.1
80192;SHT31;69513;51.990;5.704;2023-08-07T13:06:03;20.0;55.9
80192;SHT31;69513;51.990;5.704;2023-08-07T13:08:37;20.0;55.1
80192;SHT31;69513;51.990;5.704;2023-08-07T13:11:09;20.1;53.9
80192;SHT31;69513;51.990;5.704;2023-08-07T13:13:39;20.2;58.1
80192;SHT31;69513;51.990;5.704;2023-08-07T13:16:09;20.4;54.5
80192;SHT31;69513;51.990;5.704;2023-08-07T13:18:40;20.6;51.0
80192;SHT31;69513;51.990;5.704;2023-08-07T13:21:10;20.8;50.9
80192;SHT31;69513;51.990;5.704;2023-08-07T13:23:40;20.9;53.1
80192;SHT31;69513;51.990;5.704;2023-08-07T13:26:10;21.1;53.6
80192;SHT31;69513;51.990;5.704;2023-08-07T13:28:40;21.2;55.4
80192;SHT31;69513;51.990;5.704;2023-08-07T13:31:09;21.4;49.6
80192;SHT31;69513;51.990;5.704;2023-08-07T13:33:40;21.6;56.1
80192;SHT31;69513;51.990;5.704;2023-08-07T13:36:09;21.9;48.6
80192;SHT31;69513;51.990;5.704;2023-08-07T13:38:40;22.1;48.4
80192;SHT31;69513;51.990;5.704;2023-08-07T13:41:10;22.3;47.1
80192;SHT31;69513;51.990;5.704;2023-08-07T13:43:40;22.5;50.3
80192;SHT31;69513;51.990;5.704;2023-08-07T13:46:11;22.6;47.0
80192;SHT31;69513;51.990;5.704;2023-08-07T13:48:41;22.6;45.1
80192;SHT31;69513;51.990;5.704;2023-08-07T13:51:10;22.6;47.9
80192;SHT31;69513;51.990;5.704;2023-08-07T13:53:41;22.7;45.9
80192;SHT31;69513;51.990;5.704;2023-08-07T13:56:11;22.7;43.7
80192;SHT31;69513;51.990;5.704;2023-08-07T13:58:44;22.8;43.4
80192;SHT31;69513;51.990;5.704;2023-08-07T14:01:13;22.8;44.2
80192;SHT31;69513;51.990;5.704;2023-08-07T14:03:43;22.7;45.8
80192;SHT31;69513;51.990;5.704;2023-08-07T14:06:12;22.6;47.0
80192;SHT31;69513;51.990;5.704;2023-08-07T14:08:42;22.4;47.6
80192;SHT31;69513;51.990;5.704;2023-08-07T14:11:12;22.3;49.1
80192;SHT31;69513;51.990;5.704;2023-08-07T14:13:43;22.2;46.5
80192;SHT31;69513;51.990;5.704;2023-08-07T14:16:16;22.1;46.0
80192;SHT31;69513;51.990;5.704;2023-08-07T14:18:46;22.0;45.5
80192;SHT31;69513;51.990;5.704;2023-08-07T14:21:16;21.9;44.2
80192;SHT31;69513;51.990;5.704;2023-08-07T14:23:47;21.7;45.6
80192;SHT31;69513;51.990;5.704;2023-08-07T14:26:18;21.6;44.8
80192;SHT31;69513;51.990;5.704;2023-08-07T14:28:48;21.4;49.1
80192;SHT31;69513;51.990;5.704;2023-08-07T14:31:18;21.3;48.5
80192;SHT31;69513;51.990;5.704;2023-08-07T14:33:50;21.3;44.1
80192;SHT31;69513;51.990;5.704;2023-08-07T14:36:20;21.3;46.1
80192;SHT31;69513;51.990;5.704;2023-08-07T14:38:49;21.2;43.0
80192;SHT31;69513;51.990;5.704;2023-08-07T14:41:19;21.1;44.1
80192;SHT31;69513;51.990;5.704;2023-08-07T14:43:48;21.0;46.1
80192;SHT31;69513;51.990;5.704;2023-08-07T14:46:20;20.9;43.9
80192;SHT31;69513;51.990;5.704;2023-08-07T14:48:51;20.9;47.1
80192;SHT31;69513;51.990;5.704;2023-08-07T14:51:23;20.8;44.6
80192;SHT31;69513;51.990;5.704;2023-08-07T14:53:56;20.8;45.7
80192;SHT31;69513;51.990;5.704;2023-08-07T14:56:27;20.8;45.9
80192;SHT31;69513;51.990;5.704;2023-08-07T14:58:57;20.8;47.9
80192;SHT31;69513;51.990;5.704;2023-08-07T15:01:27;20.8;45.5
80192;SHT31;69513;51.990;5.704;2023-08-07T15:03:59;20.8;46.4
80192;SHT31;69513;51.990;5.704;2023-08-07T15:06:28;20.9;48.4
80192;SHT31;69513;51.990;5.704;2023-08-07T15:08:59;20.9;49.9
80192;SHT31;69513;51.990;5.704;2023-08-07T15:11:28;20.9;46.7
80192;SHT31;69513;51.990;5.704;2023-08-07T15:14:00;20.9;49.0
80192;SHT31;69513;51.990;5.704;2023-08-07T15:16:32;20.9;51.4
80192;SHT31;69513;51.990;5.704;2023-08-07T15:19:03;21.0;49.9
80192;SHT31;69513;51.990;5.704;2023-08-07T15:21:35;21.0;48.5
80192;SHT31;69513;51.990;5.704;2023-08-07T15:24:09;21.0;47.9
80192;SHT31;69513;51.990;5.704;2023-08-07T15:26:38;21.0;46.7
80192;SHT31;69513;51.990;5.704;2023-08-07T15:29:08;20.9;47.6
80192;SHT31;69513;51.990;5.704;2023-08-07T15:31:39;20.9;47.1
80192;SHT31;69513;51.990;5.704;2023-08-07T15:34:10;20.8;48.3
80192;SHT31;69513;51.990;5.704;2023-08-07T15:36:41;20.7;48.0
80192;SHT31;69513;51.990;5.704;2023-08-07T15:39:10;20.7;48.6
80192;SHT31;69513;51.990;5.704;2023-08-07T15:41:41;20.6;52.1
80192;SHT31;69513;51.990;5.704;2023-08-07T15:44:12;20.6;48.5
80192;SHT31;69513;51.990;5.704;2023-08-07T15:46:42;20.6;50.8
80192;SHT31;69513;51.990;5.704;2023-08-07T15:49:14;20.5;50.7
80192;SHT31;69513;51.990;5.704;2023-08-07T15:51:44;20.5;49.2
80192;SHT31;69513;51.990;5.704;2023-08-07T15:54:13;20.4;49.6
80192;SHT31;69513;51.990;5.704;2023-08-07T15:56:43;20.4;50.4
80192;SHT31;69513;51.990;5.704;2023-08-07T15:59:12;20.3;51.6
80192;SHT31;69513;51.990;5.704;2023-08-07T16:01:44;20.2;53.4
80192;SHT31;69513;51.990;5.704;2023-08-07T16:04:15;20.2;55.8
80192;SHT31;69513;51.990;5.704;2023-08-07T16:06:47;20.1;56.8
80192;SHT31;69513;51.990;5.704;2023-08-07T16:09:17;20.1;56.6
80192;SHT31;69513;51.990;5.704;2023-08-07T16:11:46;20.0;59.0
80192;SHT31;69513;51.990;5.704;2023-08-07T16:14:16;20.0;61.6
80192;SHT31;69513;51.990;5.704;2023-08-07T16:16:49;20.1;59.3
80192;SHT31;69513;51.990;5.704;2023-08-07T16:19:19;20.2;58.8
80192;SHT31;69513;51.990;5.704;2023-08-07T16:21:50;20.2;57.4
80192;SHT31;69513;51.990;5.704;2023-08-07T16:24:20;20.2;58.9
80192;SHT31;69513;51.990;5.704;2023-08-07T16:26:49;20.2;58.6